sensor_id;sensor_type;location;lat;lon;timestamp;pressure;altitude;pressure_sealevel;temperature;humidity
70242;BME280;57631;52.218;0.108;2022-08-01T00:01:46;101869.84;;;21.39;53.57
70242;BME280;57631;52.218;0.108;2022-08-01T00:04:11;101871.03;;;21.59;52.28
70242;BME280;57631;52.218;0.108;2022-08-01T00:06:36;101873.00;;;21.91;51.95
70242;BME280;57631;52.218;0.108;2022-08-01T00:09:02;101870.52;;;21.70;52.80
70242;BME280;57631;52.218;0.108;2022-08-01T00:11:27;101868.78;;;21.48;53.39
70242;BME280;57631;52.218;0.108;2022-08-01T00:13:53;101868.20;;;21.00;54.20
70242;BME280;57631;52.218;0.108;2022-08-01T00:16:18;101868.72;;;20.69;54.57
70242;BME280;57631;52.218;0.108;2022-08-01T00:18:43;101876.01;;;21.44;53.45
70242;BME280;57631;52.218;0.108;2022-08-01T00:21:09;101877.31;;;21.47;53.35
70242;BME280;57631;52.218;0.108;2022-08-01T00:23:34;101876.60;;;21.57;53.26
70242;BME280;57631;52.218;0.108;2022-08-01T00:25:59;101879.97;;;21.58;53.23
70242;BME280;57631;52.218;0.108;2022-08-01T00:28:24;101886.14;;;21.31;53.37
70242;BME280;57631;52.218;0.108;2022-08-01T00:30:50;101884.24;;;20.83;54.85
70242;BME280;57631;52.218;0.108;2022-08-01T00:33:15;101888.08;;;21.50;53.09
70242;BME280;57631;52.218;0.108;2022-08-01T00:35:41;101886.38;;;21.93;52.64
70242;BME280;57631;52.218;0.108;2022-08-01T00:38:06;101882.37;;;21.55;53.59
70242;BME280;57631;52.218;0.108;2022-08-01T00:40:31;101882.19;;;21.15;55.35
70242;BME280;57631;52.218;0.108;2022-08-01T00:42:57;101883.66;;;20.99;55.85
70242;BME280;57631;52.218;0.108;2022-08-01T00:45:22;101881.88;;;20.48;57.60
70242;BME280;57631;52.218;0.108;2022-08-01T00:47:48;101879.62;;;20.10;57.88
70242;BME280;57631;52.218;0.108;2022-08-01T00:50:13;101876.54;;;20.18;57.91
70242;BME280;57631;52.218;0.108;2022-08-01T00:52:40;101879.53;;;20.31;58.70
70242;BME280;57631;52.218;0.108;2022-08-01T00:55:05;101882.77;;;20.43;57.99
70242;BME280;57631;52.218;0.108;2022-08-01T00:57:30;101883.16;;;20.60;57.04
70242;BME280;57631;52.218;0.108;2022-08-01T00:59:56;101879.36;;;20.78;56.64
70242;BME280;57631;52.218;0.108;2022-08-01T01:02:21;101873.67;;;21.02;56.59
70242;BME280;57631;52.218;0.108;2022-08-01T01:04:46;101867.36;;;20.57;57.62
70242;BME280;57631;52.218;0.108;2022-08-01T01:07:19;101869.23;;;19.98;58.93
70242;BME280;57631;52.218;0.108;2022-08-01T01:09:43;101875.40;;;20.10;58.03
70242;BME280;57631;52.218;0.108;2022-08-01T01:12:13;101879.02;;;20.27;57.71
70242;BME280;57631;52.218;0.108;2022-08-01T01:14:35;101879.04;;;20.88;56.40
70242;BME280;57631;52.218;0.108;2022-08-01T01:16:54;101871.28;;;21.34;55.18
70242;BME280;57631;52.218;0.108;2022-08-01T01:19:23;101873.93;;;20.42;56.44
70242;BME280;57631;52.218;0.108;2022-08-01T01:21:57;101878.71;;;20.89;55.97
70242;BME280;57631;52.218;0.108;2022-08-01T01:24:19;101872.37;;;21.11;55.41
70242;BME280;57631;52.218;0.108;2022-08-01T01:26:43;101870.77;;;20.99;54.96
70242;BME280;57631;52.218;0.108;2022-08-01T01:29:03;101868.58;;;20.87;54.69
70242;BME280;57631;52.218;0.108;2022-08-01T01:31:26;101873.29;;;20.83;54.88
70242;BME280;57631;52.218;0.108;2022-08-01T01:33:53;101875.02;;;20.90;55.15
70242;BME280;57631;52.218;0.108;2022-08-01T01:36:18;101874.22;;;20.82;54.82
70242;BME280;57631;52.218;0.108;2022-08-01T01:38:45;101876.49;;;20.85;54.61
70242;BME280;57631;52.218;0.108;2022-08-01T01:41:08;101877.99;;;21.07;54.09
70242;BME280;57631;52.218;0.108;2022-08-01T01:43:33;101884.94;;;20.50;55.37
70242;BME280;57631;52.218;0.108;2022-08-01T01:45:59;101885.20;;;21.08;54.20
70242;BME280;57631;52.218;0.108;2022-08-01T01:48:24;101883.77;;;21.47;53.37
70242;BME280;57631;52.218;0.108;2022-08-01T01:50:49;101879.18;;;21.21;53.36
70242;BME280;57631;52.218;0.108;2022-08-01T01:53:18;101879.50;;;21.36;53.66
70242;BME280;57631;52.218;0.108;2022-08-01T01:55:41;101884.88;;;21.35;53.13
70242;BME280;57631;52.218;0.108;2022-08-01T01:58:06;101887.08;;;21.58;53.06
70242;BME280;57631;52.218;0.108;2022-08-01T02:00:31;101886.89;;;21.54;53.06
70242;BME280;57631;52.218;0.108;2022-08-01T02:02:56;101881.56;;;21.48;53.47
70242;BME280;57631;52.218;0.108;2022-08-01T02:05:21;101879.44;;;21.14;53.94
70242;BME280;57631;52.218;0.108;2022-08-01T02:07:47;101879.89;;;21.16;54.31
70242;BME280;57631;52.218;0.108;2022-08-01T02:10:12;101885.94;;;21.13;53.56
70242;BME280;57631;52.218;0.108;2022-08-01T02:12:41;101880.20;;;21.45;52.75
70242;BME280;57631;52.218;0.108;2022-08-01T02:15:04;101874.64;;;21.68;52.93
70242;BME280;57631;52.218;0.108;2022-08-01T02:17:28;101871.42;;;21.40;53.99
70242;BME280;57631;52.218;0.108;2022-08-01T02:19:54;101870.60;;;20.95;55.53
70242;BME280;57631;52.218;0.108;2022-08-01T02:22:24;101864.75;;;20.55;56.47
70242;BME280;57631;52.218;0.108;2022-08-01T02:24:49;101863.47;;;20.02;58.24
70242;BME280;57631;52.218;0.108;2022-08-01T02:27:12;101858.88;;;19.84;59.32
70242;BME280;57631;52.218;0.108;2022-08-01T02:29:39;101859.34;;;19.70;60.92
70242;BME280;57631;52.218;0.108;2022-08-01T02:32:02;101856.31;;;19.50;61.57
70242;BME280;57631;52.218;0.108;2022-08-01T02:34:28;101848.11;;;19.18;61.34
70242;BME280;57631;52.218;0.108;2022-08-01T02:36:52;101850.27;;;19.06;61.69
70242;BME280;57631;52.218;0.108;2022-08-01T02:39:19;101847.93;;;19.29;60.87
70242;BME280;57631;52.218;0.108;2022-08-01T02:41:45;101847.63;;;20.06;59.44
70242;BME280;57631;52.218;0.108;2022-08-01T02:44:10;101842.18;;;20.36;58.25
70242;BME280;57631;52.218;0.108;2022-08-01T02:46:35;101846.21;;;20.50;57.33
70242;BME280;57631;52.218;0.108;2022-08-01T02:48:59;101846.26;;;20.74;56.83
70242;BME280;57631;52.218;0.108;2022-08-01T02:51:23;101844.17;;;20.76;55.67
70242;BME280;57631;52.218;0.108;2022-08-01T02:53:50;101844.30;;;21.23;54.30
70242;BME280;57631;52.218;0.108;2022-08-01T02:56:15;101845.87;;;21.18;54.42
70242;BME280;57631;52.218;0.108;2022-08-01T02:58:40;101842.66;;;20.53;56.74
70242;BME280;57631;52.218;0.108;2022-08-01T03:01:05;101845.23;;;20.44;58.36
70242;BME280;57631;52.218;0.108;2022-08-01T03:03:31;101848.49;;;20.26;57.82
70242;BME280;57631;52.218;0.108;2022-08-01T03:05:56;101849.64;;;20.91;56.28
70242;BME280;57631;52.218;0.108;2022-08-01T03:08:22;101849.79;;;21.09;55.22
70242;BME280;57631;52.218;0.108;2022-08-01T03:10:47;101855.36;;;20.74;56.43
70242;BME280;57631;52.218;0.108;2022-08-01T03:13:13;101855.17;;;20.58;56.90
70242;BME280;57631;52.218;0.108;2022-08-01T03:15:39;101855.65;;;21.22;56.10
70242;BME280;57631;52.218;0.108;2022-08-01T03:18:06;101852.82;;;21.06;55.43
70242;BME280;57631;52.218;0.108;2022-08-01T03:20:30;101854.67;;;21.34;54.70
70242;BME280;57631;52.218;0.108;2022-08-01T03:22:54;101851.62;;;20.85;56.23
70242;BME280;57631;52.218;0.108;2022-08-01T03:25:20;101847.88;;;20.94;56.23
70242;BME280;57631;52.218;0.108;2022-08-01T03:27:48;101847.67;;;20.90;55.29
70242;BME280;57631;52.218;0.108;2022-08-01T03:30:11;101850.54;;;20.87;55.86
70242;BME280;57631;52.218;0.108;2022-08-01T03:32:35;101851.72;;;20.82;55.49
70242;BME280;57631;52.218;0.108;2022-08-01T03:35:00;101852.58;;;21.31;54.45
70242;BME280;57631;52.218;0.108;2022-08-01T03:37:27;101850.89;;;21.39;54.10
70242;BME280;57631;52.218;0.108;2022-08-01T03:39:57;101852.36;;;20.93;56.21
70242;BME280;57631;52.218;0.108;2022-08-01T03:42:20;101849.39;;;20.28;57.69
70242;BME280;57631;52.218;0.108;2022-08-01T03:44:47;101850.60;;;20.13;58.60
70242;BME280;57631;52.218;0.108;2022-08-01T03:47:09;101847.05;;;20.24;59.07
70242;BME280;57631;52.218;0.108;2022-08-01T03:49:34;101848.96;;;20.15;58.21
70242;BME280;57631;52.218;0.108;2022-08-01T03:51:59;101852.29;;;19.94;59.75
70242;BME280;57631;52.218;0.108;2022-08-01T03:54:25;101857.09;;;20.13;59.40
70242;BME280;57631;52.218;0.108;2022-08-01T03:56:48;101858.23;;;20.02;59.18
70242;BME280;57631;52.218;0.108;2022-08-01T03:59:14;101859.18;;;20.13;57.40
70242;BME280;57631;52.218;0.108;2022-08-01T04:01:39;101857.87;;;20.74;55.81
70242;BME280;57631;52.218;0.108;2022-08-01T04:04:04;101860.05;;;21.03;55.12
70242;BME280;57631;52.218;0.108;2022-08-01T04:06:29;101866.01;;;20.93;55.15
70242;BME280;57631;52.218;0.108;2022-08-01T04:08:55;101866.61;;;21.11;54.77
70242;BME280;57631;52.218;0.108;2022-08-01T04:11:21;101866.23;;;21.15;54.81
70242;BME280;57631;52.218;0.108;2022-08-01T04:13:46;101864.88;;;21.35;53.56
70242;BME280;57631;52.218;0.108;2022-08-01T04:16:11;101864.10;;;21.47;53.79
70242;BME280;57631;52.218;0.108;2022-08-01T04:18:36;101863.98;;;20.66;55.55
70242;BME280;57631;52.218;0.108;2022-08-01T04:21:02;101859.18;;;21.01;55.40
70242;BME280;57631;52.218;0.108;2022-08-01T04:23:28;101863.59;;;20.42;57.16
70242;BME280;57631;52.218;0.108;2022-08-01T04:25:52;101865.69;;;20.64;56.91
70242;BME280;57631;52.218;0.108;2022-08-01T04:28:19;101865.83;;;21.02;55.95
70242;BME280;57631;52.218;0.108;2022-08-01T04:30:45;101865.33;;;20.87;55.84
70242;BME280;57631;52.218;0.108;2022-08-01T04:33:10;101865.70;;;20.96;55.40
70242;BME280;57631;52.218;0.108;2022-08-01T04:35:34;101865.81;;;21.10;55.13
70242;BME280;57631;52.218;0.108;2022-08-01T04:37:59;101865.84;;;21.15;55.08
70242;BME280;57631;52.218;0.108;2022-08-01T04:40:25;101863.04;;;20.87;55.39
70242;BME280;57631;52.218;0.108;2022-08-01T04:42:50;101860.79;;;21.05;54.88
70242;BME280;57631;52.218;0.108;2022-08-01T04:45:15;101860.30;;;20.82;55.52
70242;BME280;57631;52.218;0.108;2022-08-01T04:47:41;101861.92;;;20.92;55.09
70242;BME280;57631;52.218;0.108;2022-08-01T04:50:07;101867.20;;;20.78;55.66
70242;BME280;57631;52.218;0.108;2022-08-01T04:52:33;101870.08;;;21.40;54.17
70242;BME280;57631;52.218;0.108;2022-08-01T04:54:56;101867.98;;;21.19;54.73
70242;BME280;57631;52.218;0.108;2022-08-01T04:57:22;101868.15;;;20.96;54.56
70242;BME280;57631;52.218;0.108;2022-08-01T04:59:48;101866.45;;;21.46;53.63
70242;BME280;57631;52.218;0.108;2022-08-01T05:02:16;101864.87;;;21.31;53.38
70242;BME280;57631;52.218;0.108;2022-08-01T05:04:40;101868.48;;;21.76;52.50
70242;BME280;57631;52.218;0.108;2022-08-01T05:07:04;101877.72;;;22.33;51.05
70242;BME280;57631;52.218;0.108;2022-08-01T05:09:29;101878.72;;;21.58;52.79
70242;BME280;57631;52.218;0.108;2022-08-01T05:11:55;101878.01;;;21.74;52.42
70242;BME280;57631;52.218;0.108;2022-08-01T05:14:20;101877.85;;;21.91;52.08
70242;BME280;57631;52.218;0.108;2022-08-01T05:16:45;101876.91;;;21.82;52.29
70242;BME280;57631;52.218;0.108;2022-08-01T05:19:11;101878.55;;;21.56;51.80
70242;BME280;57631;52.218;0.108;2022-08-01T05:21:36;101876.60;;;22.30;51.43
70242;BME280;57631;52.218;0.108;2022-08-01T05:24:02;101874.15;;;22.30;51.06
70242;BME280;57631;52.218;0.108;2022-08-01T05:26:27;101869.46;;;21.31;54.31
70242;BME280;57631;52.218;0.108;2022-08-01T05:28:52;101869.20;;;21.01;54.32
70242;BME280;57631;52.218;0.108;2022-08-01T05:31:18;101873.99;;;20.69;54.85
70242;BME280;57631;52.218;0.108;2022-08-01T05:33:43;101873.05;;;21.58;53.30
70242;BME280;57631;52.218;0.108;2022-08-01T05:36:09;101872.59;;;21.19;53.73
70242;BME280;57631;52.218;0.108;2022-08-01T05:38:34;101871.44;;;20.67;55.10
70242;BME280;57631;52.218;0.108;2022-08-01T05:40:59;101872.14;;;21.17;53.78
70242;BME280;57631;52.218;0.108;2022-08-01T05:43:24;101872.57;;;21.42;52.37
70242;BME280;57631;52.218;0.108;2022-08-01T05:45:50;101875.97;;;22.07;51.43
70242;BME280;57631;52.218;0.108;2022-08-01T05:48:15;101878.71;;;22.74;49.97
70242;BME280;57631;52.218;0.108;2022-08-01T05:50:40;101880.64;;;22.95;49.48
70242;BME280;57631;52.218;0.108;2022-08-01T05:53:05;101882.78;;;22.10;51.45
70242;BME280;57631;52.218;0.108;2022-08-01T05:55:31;101882.01;;;22.59;50.82
70242;BME280;57631;52.218;0.108;2022-08-01T05:57:56;101879.92;;;22.88;49.56
70242;BME280;57631;52.218;0.108;2022-08-01T06:00:22;101883.53;;;22.83;49.04
70242;BME280;57631;52.218;0.108;2022-08-01T06:02:47;101886.16;;;21.96;51.18
70242;BME280;57631;52.218;0.108;2022-08-01T06:05:12;101886.62;;;22.75;49.36
70242;BME280;57631;52.218;0.108;2022-08-01T06:07:38;101885.14;;;23.02;48.84
70242;BME280;57631;52.218;0.108;2022-08-01T06:10:03;101884.32;;;22.78;48.96
70242;BME280;57631;52.218;0.108;2022-08-01T06:12:28;101887.61;;;22.23;50.97
70242;BME280;57631;52.218;0.108;2022-08-01T06:14:53;101887.57;;;22.33;50.32
70242;BME280;57631;52.218;0.108;2022-08-01T06:17:19;101886.83;;;22.64;49.35
70242;BME280;57631;52.218;0.108;2022-08-01T06:19:44;101884.34;;;22.83;49.52
70242;BME280;57631;52.218;0.108;2022-08-01T06:22:10;101883.84;;;23.11;49.65
70242;BME280;57631;52.218;0.108;2022-08-01T06:24:35;101885.70;;;23.14;49.19
70242;BME280;57631;52.218;0.108;2022-08-01T06:27:01;101885.84;;;23.34;49.16
70242;BME280;57631;52.218;0.108;2022-08-01T06:29:26;101882.17;;;22.87;49.81
70242;BME280;57631;52.218;0.108;2022-08-01T06:31:51;101880.49;;;22.59;50.01
70242;BME280;57631;52.218;0.108;2022-08-01T06:34:16;101881.48;;;23.02;49.73
70242;BME280;57631;52.218;0.108;2022-08-01T06:36:42;101877.97;;;23.22;48.48
70242;BME280;57631;52.218;0.108;2022-08-01T06:39:07;101881.13;;;22.82;49.13
70242;BME280;57631;52.218;0.108;2022-08-01T06:41:32;101876.90;;;23.48;48.02
70242;BME280;57631;52.218;0.108;2022-08-01T06:43:58;101874.07;;;23.61;47.56
70242;BME280;57631;52.218;0.108;2022-08-01T06:46:23;101874.13;;;23.84;48.12
70242;BME280;57631;52.218;0.108;2022-08-01T06:48:48;101881.41;;;23.30;48.79
70242;BME280;57631;52.218;0.108;2022-08-01T06:51:14;101882.30;;;23.13;49.49
70242;BME280;57631;52.218;0.108;2022-08-01T06:53:39;101881.45;;;22.64;49.84
70242;BME280;57631;52.218;0.108;2022-08-01T06:56:06;101880.04;;;23.27;48.40
70242;BME280;57631;52.218;0.108;2022-08-01T06:58:30;101881.75;;;23.21;48.78
70242;BME280;57631;52.218;0.108;2022-08-01T07:00:56;101883.44;;;23.16;49.11
70242;BME280;57631;52.218;0.108;2022-08-01T07:03:21;101880.28;;;23.23;48.72
70242;BME280;57631;52.218;0.108;2022-08-01T07:05:46;101880.41;;;23.69;47.73
70242;BME280;57631;52.218;0.108;2022-08-01T07:08:12;101888.67;;;23.02;47.91
70242;BME280;57631;52.218;0.108;2022-08-01T07:10:37;101893.37;;;23.67;47.80
70242;BME280;57631;52.218;0.108;2022-08-01T07:13:02;101890.10;;;23.95;47.24
70242;BME280;57631;52.218;0.108;2022-08-01T07:15:28;101895.20;;;23.50;48.00
70242;BME280;57631;52.218;0.108;2022-08-01T07:17:53;101898.23;;;22.52;49.48
70242;BME280;57631;52.218;0.108;2022-08-01T07:20:18;101889.90;;;23.43;47.42
70242;BME280;57631;52.218;0.108;2022-08-01T07:22:44;101895.87;;;23.03;48.81
70242;BME280;57631;52.218;0.108;2022-08-01T07:25:10;101898.76;;;23.59;47.42
70242;BME280;57631;52.218;0.108;2022-08-01T07:27:35;101898.54;;;23.47;47.59
70242;BME280;57631;52.218;0.108;2022-08-01T07:30:06;101898.45;;;23.77;47.90
70242;BME280;57631;52.218;0.108;2022-08-01T07:32:25;101900.18;;;23.50;48.32
70242;BME280;57631;52.218;0.108;2022-08-01T07:34:51;101900.39;;;23.86;47.36
70242;BME280;57631;52.218;0.108;2022-08-01T07:37:16;101902.06;;;23.95;47.00
70242;BME280;57631;52.218;0.108;2022-08-01T07:39:41;101905.91;;;24.26;46.49
70242;BME280;57631;52.218;0.108;2022-08-01T07:42:07;101906.92;;;23.84;47.09
70242;BME280;57631;52.218;0.108;2022-08-01T07:44:32;101912.09;;;22.94;48.68
70242;BME280;57631;52.218;0.108;2022-08-01T07:46:57;101915.40;;;22.83;48.77
70242;BME280;57631;52.218;0.108;2022-08-01T07:49:23;101920.50;;;22.06;50.01
70242;BME280;57631;52.218;0.108;2022-08-01T07:51:48;101918.21;;;23.55;48.17
70242;BME280;57631;52.218;0.108;2022-08-01T07:54:13;101917.34;;;23.81;47.27
70242;BME280;57631;52.218;0.108;2022-08-01T07:56:39;101919.99;;;23.99;46.80
70242;BME280;57631;52.218;0.108;2022-08-01T07:59:04;101925.06;;;24.06;47.18
70242;BME280;57631;52.218;0.108;2022-08-01T08:01:29;101923.75;;;23.62;47.41
70242;BME280;57631;52.218;0.108;2022-08-01T08:03:55;101929.93;;;22.26;50.53
70242;BME280;57631;52.218;0.108;2022-08-01T08:06:20;101930.32;;;22.26;50.67
70242;BME280;57631;52.218;0.108;2022-08-01T08:08:45;101927.86;;;23.29;48.77
70242;BME280;57631;52.218;0.108;2022-08-01T08:11:11;101931.65;;;23.48;48.34
70242;BME280;57631;52.218;0.108;2022-08-01T08:13:36;101932.56;;;23.82;47.62
70242;BME280;57631;52.218;0.108;2022-08-01T08:16:01;101928.19;;;23.83;47.49
70242;BME280;57631;52.218;0.108;2022-08-01T08:18:26;101922.63;;;23.58;47.60
70242;BME280;57631;52.218;0.108;2022-08-01T08:20:52;101920.65;;;23.62;47.94
70242;BME280;57631;52.218;0.108;2022-08-01T08:23:17;101927.41;;;22.27;50.52
70242;BME280;57631;52.218;0.108;2022-08-01T08:25:43;101921.23;;;22.63;49.99
70242;BME280;57631;52.218;0.108;2022-08-01T08:28:08;101921.63;;;23.82;48.06
70242;BME280;57631;52.218;0.108;2022-08-01T08:30:33;101923.04;;;23.87;47.80
70242;BME280;57631;52.218;0.108;2022-08-01T08:32:59;101922.62;;;23.98;46.82
70242;BME280;57631;52.218;0.108;2022-08-01T08:35:24;101923.63;;;24.33;46.11
70242;BME280;57631;52.218;0.108;2022-08-01T08:37:49;101921.80;;;24.12;46.52
70242;BME280;57631;52.218;0.108;2022-08-01T08:40:16;101920.27;;;23.85;46.71
70242;BME280;57631;52.218;0.108;2022-08-01T08:42:40;101921.20;;;23.82;47.47
70242;BME280;57631;52.218;0.108;2022-08-01T08:45:06;101917.08;;;24.74;45.27
70242;BME280;57631;52.218;0.108;2022-08-01T08:47:32;101913.06;;;24.81;44.98
70242;BME280;57631;52.218;0.108;2022-08-01T08:49:56;101908.98;;;24.10;45.50
70242;BME280;57631;52.218;0.108;2022-08-01T08:52:22;101909.99;;;24.70;45.57
70242;BME280;57631;52.218;0.108;2022-08-01T08:54:48;101913.55;;;23.05;48.97
70242;BME280;57631;52.218;0.108;2022-08-01T08:57:13;101910.61;;;23.24;48.53
70242;BME280;57631;52.218;0.108;2022-08-01T08:59:37;101909.83;;;24.09;46.85
70242;BME280;57631;52.218;0.108;2022-08-01T09:02:02;101914.76;;;24.71;45.64
70242;BME280;57631;52.218;0.108;2022-08-01T09:04:27;101918.54;;;24.84;44.89
70242;BME280;57631;52.218;0.108;2022-08-01T09:06:54;101924.60;;;24.75;45.25
70242;BME280;57631;52.218;0.108;2022-08-01T09:09:19;101927.27;;;24.92;44.42
70242;BME280;57631;52.218;0.108;2022-08-01T09:11:43;101928.90;;;24.28;46.36
70242;BME280;57631;52.218;0.108;2022-08-01T09:14:11;101928.24;;;24.25;46.67
70242;BME280;57631;52.218;0.108;2022-08-01T09:16:35;101927.92;;;23.77;47.40
70242;BME280;57631;52.218;0.108;2022-08-01T09:19:08;101926.81;;;24.17;46.91
70242;BME280;57631;52.218;0.108;2022-08-01T09:21:25;101924.37;;;24.28;46.14
70242;BME280;57631;52.218;0.108;2022-08-01T09:23:52;101924.16;;;24.03;47.03
70242;BME280;57631;52.218;0.108;2022-08-01T09:26:17;101918.00;;;23.82;47.32
70242;BME280;57631;52.218;0.108;2022-08-01T09:28:41;101920.20;;;24.32;46.88
70242;BME280;57631;52.218;0.108;2022-08-01T09:31:08;101922.10;;;24.61;46.40
70242;BME280;57631;52.218;0.108;2022-08-01T09:35:57;101918.85;;;24.69;45.36
70242;BME280;57631;52.218;0.108;2022-08-01T09:38:24;101918.79;;;24.72;44.44
70242;BME280;57631;52.218;0.108;2022-08-01T09:40:50;101923.95;;;24.01;46.22
70242;BME280;57631;52.218;0.108;2022-08-01T09:43:13;101926.42;;;23.38;47.78
70242;BME280;57631;52.218;0.108;2022-08-01T09:45:38;101926.70;;;23.58;48.43
70242;BME280;57631;52.218;0.108;2022-08-01T09:48:06;101922.61;;;23.39;47.90
70242;BME280;57631;52.218;0.108;2022-08-01T09:50:38;101926.42;;;23.27;48.59
70242;BME280;57631;52.218;0.108;2022-08-01T09:52:54;101929.29;;;24.09;46.99
70242;BME280;57631;52.218;0.108;2022-08-01T09:55:21;101928.47;;;24.71;44.87
70242;BME280;57631;52.218;0.108;2022-08-01T09:57:54;101929.66;;;25.52;43.14
70242;BME280;57631;52.218;0.108;2022-08-01T10:00:17;101928.65;;;25.54;42.98
70242;BME280;57631;52.218;0.108;2022-08-01T10:02:38;101925.33;;;25.84;42.48
70242;BME280;57631;52.218;0.108;2022-08-01T10:05:02;101922.85;;;25.80;42.03
70242;BME280;57631;52.218;0.108;2022-08-01T10:07:26;101918.08;;;26.32;41.15
70242;BME280;57631;52.218;0.108;2022-08-01T10:09:52;101913.53;;;26.52;40.49
70242;BME280;57631;52.218;0.108;2022-08-01T10:12:23;101912.07;;;26.12;40.39
70242;BME280;57631;52.218;0.108;2022-08-01T10:14:43;101915.12;;;26.42;40.56
70242;BME280;57631;52.218;0.108;2022-08-01T10:17:11;101916.49;;;25.79;42.22
70242;BME280;57631;52.218;0.108;2022-08-01T10:19:35;101911.35;;;26.47;41.35
70242;BME280;57631;52.218;0.108;2022-08-01T10:21:59;101912.69;;;25.87;43.27
70242;BME280;57631;52.218;0.108;2022-08-01T10:24:24;101911.39;;;26.51;41.72
70242;BME280;57631;52.218;0.108;2022-08-01T10:26:52;101913.65;;;27.16;39.20
70242;BME280;57631;52.218;0.108;2022-08-01T10:29:15;101901.69;;;27.38;38.17
70242;BME280;57631;52.218;0.108;2022-08-01T10:31:39;101906.37;;;27.29;39.33
70242;BME280;57631;52.218;0.108;2022-08-01T10:34:05;101913.40;;;23.36;44.98
70242;BME280;57631;52.218;0.108;2022-08-01T10:36:30;101909.08;;;23.78;44.72
70242;BME280;57631;52.218;0.108;2022-08-01T10:38:55;101905.71;;;23.77;44.19
70242;BME280;57631;52.218;0.108;2022-08-01T10:41:21;101900.88;;;23.74;44.11
70242;BME280;57631;52.218;0.108;2022-08-01T10:43:46;101903.22;;;22.87;45.87
70242;BME280;57631;52.218;0.108;2022-08-01T10:46:11;101896.41;;;25.14;41.81
70242;BME280;57631;52.218;0.108;2022-08-01T10:48:44;101892.84;;;25.90;40.16
70242;BME280;57631;52.218;0.108;2022-08-01T10:51:04;101890.56;;;27.46;38.09
70242;BME280;57631;52.218;0.108;2022-08-01T10:53:27;101886.72;;;28.89;36.09
70242;BME280;57631;52.218;0.108;2022-08-01T10:55:58;101890.99;;;30.66;32.93
70242;BME280;57631;52.218;0.108;2022-08-01T10:58:22;101887.92;;;28.89;34.70
70242;BME280;57631;52.218;0.108;2022-08-01T11:00:43;101876.04;;;30.95;32.30
70242;BME280;57631;52.218;0.108;2022-08-01T11:03:08;101878.24;;;30.98;32.40
70242;BME280;57631;52.218;0.108;2022-08-01T11:05:34;101878.58;;;29.91;32.53
70242;BME280;57631;52.218;0.108;2022-08-01T11:08:02;101871.60;;;29.84;32.02
70242;BME280;57631;52.218;0.108;2022-08-01T11:10:28;101871.31;;;31.86;30.30
70242;BME280;57631;52.218;0.108;2022-08-01T11:12:49;101868.20;;;31.20;29.46
70242;BME280;57631;52.218;0.108;2022-08-01T11:15:20;101870.24;;;32.21;28.51
70242;BME280;57631;52.218;0.108;2022-08-01T11:17:41;101865.93;;;32.17;27.53
70242;BME280;57631;52.218;0.108;2022-08-01T11:20:07;101870.65;;;29.65;30.63
70242;BME280;57631;52.218;0.108;2022-08-01T11:22:31;101871.10;;;27.03;35.37
70242;BME280;57631;52.218;0.108;2022-08-01T11:24:56;101868.11;;;27.63;34.98
70242;BME280;57631;52.218;0.108;2022-08-01T11:27:22;101855.14;;;28.44;32.87
70242;BME280;57631;52.218;0.108;2022-08-01T11:32:23;101848.08;;;29.73;31.56
70242;BME280;57631;52.218;0.108;2022-08-01T11:39:28;101839.13;;;28.51;32.56
70242;BME280;57631;52.218;0.108;2022-08-01T11:41:53;101839.35;;;31.12;30.02
70242;BME280;57631;52.218;0.108;2022-08-01T11:44:21;101840.85;;;29.47;31.70
70242;BME280;57631;52.218;0.108;2022-08-01T11:46:51;101843.48;;;29.01;31.67
70242;BME280;57631;52.218;0.108;2022-08-01T11:51:34;101837.43;;;28.01;32.70
70242;BME280;57631;52.218;0.108;2022-08-01T11:54:00;101841.60;;;27.10;33.73
70242;BME280;57631;52.218;0.108;2022-08-01T11:56:25;101837.43;;;27.75;33.70
70242;BME280;57631;52.218;0.108;2022-08-01T11:58:58;101829.42;;;28.39;32.96
70242;BME280;57631;52.218;0.108;2022-08-01T12:01:17;101833.74;;;26.16;36.46
70242;BME280;57631;52.218;0.108;2022-08-01T12:03:41;101832.48;;;25.68;38.18
70242;BME280;57631;52.218;0.108;2022-08-01T12:06:06;101832.64;;;26.91;36.47
70242;BME280;57631;52.218;0.108;2022-08-01T12:08:33;101829.77;;;27.71;35.48
70242;BME280;57631;52.218;0.108;2022-08-01T12:10:58;101836.93;;;27.40;35.23
70242;BME280;57631;52.218;0.108;2022-08-01T12:13:23;101828.20;;;26.83;35.21
70242;BME280;57631;52.218;0.108;2022-08-01T12:15:48;101820.67;;;28.90;32.73
70242;BME280;57631;52.218;0.108;2022-08-01T12:18:14;101817.30;;;30.75;30.31
70242;BME280;57631;52.218;0.108;2022-08-01T12:20:41;101818.85;;;31.43;29.18
70242;BME280;57631;52.218;0.108;2022-08-01T12:23:06;101820.46;;;31.74;28.61
70242;BME280;57631;52.218;0.108;2022-08-01T12:25:29;101816.83;;;28.85;31.97
70242;BME280;57631;52.218;0.108;2022-08-01T12:27:58;101823.26;;;27.26;35.62
70242;BME280;57631;52.218;0.108;2022-08-01T12:30:21;101813.68;;;28.56;33.24
70242;BME280;57631;52.218;0.108;2022-08-01T12:32:46;101808.52;;;29.84;31.02
70242;BME280;57631;52.218;0.108;2022-08-01T12:35:12;101810.65;;;29.49;31.18
70242;BME280;57631;52.218;0.108;2022-08-01T12:37:36;101814.23;;;28.64;32.32
70242;BME280;57631;52.218;0.108;2022-08-01T12:40:12;101813.13;;;27.42;35.05
70242;BME280;57631;52.218;0.108;2022-08-01T12:42:27;101803.13;;;28.43;33.44
70242;BME280;57631;52.218;0.108;2022-08-01T12:44:52;101805.04;;;27.23;34.29
70242;BME280;57631;52.218;0.108;2022-08-01T12:47:18;101795.85;;;28.00;33.64
70242;BME280;57631;52.218;0.108;2022-08-01T12:49:43;101795.72;;;28.62;32.91
70242;BME280;57631;52.218;0.108;2022-08-01T12:52:08;101796.24;;;27.85;33.34